Forbes Field
KFOE : now visible

Airfield :











YOU CAN JOIN US ON...

 
LOGIN :

Register | Disclaimer

   EN    FR    IT 

 









Legend :    VFR   Marginal VFR   IFR   Intensive IFR   Very Intensive IFR
Visi :
Ceiling :
>= 8 km
>= 3000ft
5 to 8 km
1000 to 3000 ft
1500m to 5 km
500 to 1000 ft
800 to 1500m
200 to 500 ft
< 800m
< 200 ft
Symbols :   Thunderstorms  Fog  Heavy snow  Heavy precipitations  Wind > 20 kt






- Airport Elevation : 1078 ft
- IATA code : FOE


KFOE - Forbes Field

CURRENT METAR :
  • 162153Z 15013G19KT 10SM CLR 14/M02 A3001 RMK AO2 SLP166 T01441022

EXPIRED METARs :
  • 162053Z AUTO 16012KT 10SM CLR 16/M02 A3002 RMK AO2 SLP169 T01561017 56030
  • 161953Z 15013KT 10SM CLR 16/M02 A3005 RMK AO2 SLP177 T01561017

TAF KFOE
Valid from the 16 at 18:00 until the 17 at 18:00 UTC


161725Z 1618/1718 17013G23KT P6SM SCT250
FM162300 17009KT P6SM BKN150
FM170300 17006KT P6SM BKN200 WS012/20038KT
FM170800 24009KT P6SM BKN100
FM171200 30009KT P6SM BKN060



MET'MAP, your aeronautical weather chart ! - Copyright ORBIFLY December 2007 - Disclaimer

ORBIFLY MET'MAP TEAM :

Programming & Development : Alexandra Zaïnal
Concept & Development : Baudouin d'Aumeries
Co-Development & Prog : Marc-Olivier Méhu
Technical & hardware support : Manuel Goepfert

Contact : metmap@orbifly.com




SOURCES & CREDITS :

   NOAA       Earth
Advisory